createdAt,value
2023-01-31T00:01:40.483Z,2.40
2023-01-31T00:04:11.354Z,2.30
2023-01-31T00:06:43.593Z,2.40
2023-01-31T00:09:14.558Z,2.30
2023-01-31T00:11:41.359Z,2.30
2023-01-31T00:14:16.984Z,2.30
2023-01-31T00:16:43.809Z,2.20
2023-01-31T00:19:10.643Z,2.30
2023-01-31T00:21:37.442Z,2.30
2023-01-31T00:24:07.833Z,2.20
2023-01-31T00:26:36.026Z,2.10
2023-01-31T00:29:05.200Z,2.10
2023-01-31T00:31:34.111Z,2.00
2023-01-31T00:34:01.077Z,2.10
2023-01-31T00:36:32.146Z,2.00
2023-01-31T00:39:03.401Z,1.80
2023-01-31T00:41:32.741Z,2.10
2023-01-31T00:43:59.791Z,2.00
2023-01-31T00:46:26.873Z,2.40
2023-01-31T00:48:58.365Z,2.30
2023-01-31T00:51:26.744Z,2.00
2023-01-31T00:53:54.467Z,2.00
2023-01-31T00:56:26.401Z,1.90
2023-01-31T00:58:53.500Z,2.00
2023-01-31T01:01:23.751Z,2.10
2023-01-31T01:03:52.613Z,2.10
2023-01-31T01:06:21.576Z,2.00
2023-01-31T01:08:48.599Z,2.00
2023-01-31T01:11:21.995Z,2.20
2023-01-31T01:13:49.651Z,2.00
2023-01-31T01:16:22.457Z,1.90
2023-01-31T01:18:50.319Z,1.90
2023-01-31T01:21:26.521Z,1.80
2023-01-31T01:23:55.417Z,1.80
2023-01-31T01:26:26.999Z,2.00
2023-01-31T01:28:55.566Z,1.90
2023-01-31T01:31:30.399Z,1.80
2023-01-31T01:34:12.015Z,2.00
2023-01-31T01:36:39.286Z,1.80
2023-01-31T01:39:11.522Z,1.90
2023-01-31T01:41:39.844Z,2.00
2023-01-31T01:45:03.019Z,2.20
2023-01-31T01:47:50.249Z,2.20
2023-01-31T01:50:31.139Z,2.00
2023-01-31T01:53:14.543Z,1.80
2023-01-31T01:55:47.629Z,1.80
2023-01-31T01:58:36.692Z,1.90
2023-01-31T02:01:07.687Z,2.10
2023-01-31T02:03:35.291Z,2.00
2023-01-31T02:06:09.173Z,1.70
2023-01-31T02:08:39.145Z,1.60
2023-01-31T02:11:10.423Z,1.70
2023-01-31T02:13:41.130Z,1.50
2023-01-31T02:16:08.481Z,1.50
2023-01-31T02:18:35.542Z,1.40
2023-01-31T02:21:39.856Z,1.40
2023-01-31T02:24:06.626Z,1.30
2023-01-31T02:26:48.617Z,1.40
2023-01-31T02:29:36.947Z,1.30
2023-01-31T02:32:22.700Z,1.20
2023-01-31T02:35:23.024Z,1.20
2023-01-31T02:38:05.081Z,1.20
2023-01-31T02:40:48.648Z,1.20
2023-01-31T02:43:57.004Z,1.00
2023-01-31T02:46:47.621Z,1.10
2023-01-31T02:49:42.222Z,1.10
2023-01-31T02:52:16.773Z,1.10
2023-01-31T02:55:10.627Z,1.10
2023-01-31T02:57:41.551Z,1.00
2023-01-31T03:00:10.915Z,1.00
2023-01-31T03:02:38.004Z,1.20
2023-01-31T03:05:11.973Z,1.50
2023-01-31T03:07:45.735Z,1.50
2023-01-31T03:10:49.543Z,1.70
2023-01-31T03:13:33.217Z,1.80
2023-01-31T03:16:39.205Z,1.70
2023-01-31T03:19:30.903Z,1.50
2023-01-31T03:22:07.375Z,1.60
2023-01-31T03:24:34.614Z,1.50
2023-01-31T03:27:04.772Z,1.40
2023-01-31T03:29:36.350Z,1.70
2023-01-31T03:32:26.695Z,1.50
2023-01-31T03:34:54.557Z,1.30
2023-01-31T03:37:41.055Z,1.20
2023-01-31T03:40:14.294Z,1.10
2023-01-31T03:43:11.595Z,1.00
2023-01-31T03:45:51.309Z,1.00
2023-01-31T03:48:22.700Z,0.90
2023-01-31T03:51:02.194Z,1.00
2023-01-31T03:53:48.950Z,1.00
2023-01-31T03:56:35.870Z,0.90
2023-01-31T03:59:16.640Z,0.90
2023-01-31T04:01:50.025Z,0.80
2023-01-31T04:04:27.460Z,0.80
2023-01-31T04:06:54.559Z,0.80
2023-01-31T04:09:23.133Z,0.80
2023-01-31T04:11:50.673Z,0.80
2023-01-31T04:16:58.661Z,0.70
2023-01-31T04:19:25.500Z,0.70
2023-01-31T04:21:54.397Z,0.60
2023-01-31T04:24:21.173Z,0.60
2023-01-31T04:26:50.269Z,0.10
2023-01-31T04:29:17.231Z,-0.10
2023-01-31T04:31:52.848Z,-0.10
2023-01-31T04:34:19.749Z,-0.10
2023-01-31T04:36:46.615Z,-0.20
2023-01-31T04:39:14.589Z,0.00
2023-01-31T04:41:50.138Z,0.10
2023-01-31T04:44:16.927Z,0.20
2023-01-31T04:46:43.713Z,0.30
2023-01-31T04:49:10.542Z,0.20
2023-01-31T04:51:37.289Z,0.00
2023-01-31T04:54:04.452Z,0.00
2023-01-31T04:56:32.088Z,0.00
2023-01-31T04:58:59.250Z,-0.40
2023-01-31T05:01:26.690Z,-0.50
2023-01-31T05:03:53.480Z,-0.50
2023-01-31T05:06:20.255Z,-0.50
2023-01-31T05:08:47.472Z,-0.50
2023-01-31T05:11:14.861Z,-0.40
2023-01-31T05:13:42.866Z,-0.60
2023-01-31T05:16:12.333Z,-0.50
2023-01-31T05:18:39.289Z,-0.60
2023-01-31T05:21:07.906Z,-0.70
2023-01-31T05:23:37.398Z,-0.70
2023-01-31T05:26:04.882Z,-0.70
2023-01-31T05:28:31.674Z,-0.50
2023-01-31T05:31:04.786Z,-0.40
2023-01-31T05:33:32.606Z,-0.30
2023-01-31T05:36:00.430Z,-0.30
2023-01-31T05:38:29.872Z,-0.40
2023-01-31T05:40:56.640Z,-0.30
2023-01-31T05:43:23.818Z,-0.30
2023-01-31T05:45:50.644Z,-0.30
2023-01-31T05:48:17.448Z,-0.30
2023-01-31T05:50:44.345Z,-0.30
2023-01-31T05:53:11.337Z,-0.40
2023-01-31T05:55:38.194Z,-0.40
2023-01-31T05:58:06.267Z,-0.30
2023-01-31T06:00:33.398Z,-0.30
2023-01-31T06:03:00.376Z,-0.30
2023-01-31T06:05:27.990Z,-0.30
2023-01-31T06:07:57.286Z,-0.40
2023-01-31T06:10:26.579Z,-0.40
2023-01-31T06:12:53.366Z,-0.30
2023-01-31T06:15:20.240Z,-0.20
2023-01-31T06:17:49.488Z,-0.20
2023-01-31T06:20:17.162Z,-0.10
2023-01-31T06:22:43.955Z,-0.10
2023-01-31T06:25:13.373Z,-0.20
2023-01-31T06:27:40.148Z,-0.40
2023-01-31T06:30:07.564Z,-0.40
2023-01-31T06:32:34.344Z,-0.20
2023-01-31T06:35:01.122Z,-0.10
2023-01-31T06:37:27.930Z,-0.20
2023-01-31T06:39:54.670Z,-0.20
2023-01-31T06:42:24.495Z,-0.20
2023-01-31T06:44:51.231Z,-0.10
2023-01-31T06:47:19.358Z,-0.20
2023-01-31T06:49:50.824Z,-0.40
2023-01-31T06:52:17.617Z,-0.50
2023-01-31T06:54:44.710Z,-0.30
2023-01-31T06:57:12.507Z,-0.20
2023-01-31T06:59:41.407Z,-0.10
2023-01-31T07:02:10.468Z,-0.10
2023-01-31T07:04:37.460Z,-0.10
2023-01-31T07:07:04.295Z,-0.10
2023-01-31T07:09:33.756Z,0.20
2023-01-31T07:12:02.857Z,0.20
2023-01-31T07:14:31.625Z,0.20
2023-01-31T07:17:00.862Z,0.20
2023-01-31T07:19:28.681Z,0.50
2023-01-31T07:21:56.168Z,0.60
2023-01-31T07:24:25.122Z,0.60
2023-01-31T07:26:54.999Z,0.60
2023-01-31T07:29:21.892Z,0.40
2023-01-31T07:31:48.732Z,0.60
2023-01-31T07:34:15.651Z,0.70
2023-01-31T07:36:42.397Z,0.60
2023-01-31T07:39:09.178Z,0.60
2023-01-31T07:41:35.960Z,0.70
2023-01-31T07:44:02.797Z,0.80
2023-01-31T07:46:31.027Z,0.90
2023-01-31T07:48:57.859Z,0.80
2023-01-31T07:51:24.709Z,1.30
2023-01-31T07:54:21.773Z,2.00
2023-01-31T07:56:52.763Z,1.90
2023-01-31T07:59:20.605Z,1.80
2023-01-31T08:02:05.817Z,1.80
2023-01-31T08:04:36.551Z,1.80
2023-01-31T08:07:10.650Z,2.00
2023-01-31T08:09:41.217Z,2.30
2023-01-31T08:12:08.250Z,2.50
2023-01-31T08:14:37.901Z,2.80
2023-01-31T08:17:06.329Z,3.20
2023-01-31T08:19:33.307Z,3.60
2023-01-31T08:22:03.348Z,3.60
2023-01-31T08:24:34.315Z,3.70
2023-01-31T08:27:01.145Z,3.80
2023-01-31T08:29:28.070Z,4.00
2023-01-31T08:31:55.194Z,4.10
2023-01-31T08:34:25.972Z,4.30
2023-01-31T08:36:52.850Z,4.30
2023-01-31T08:39:19.843Z,4.30
2023-01-31T08:41:50.351Z,4.50
2023-01-31T08:44:17.194Z,4.70
2023-01-31T08:46:45.737Z,4.60
2023-01-31T08:49:14.517Z,4.60
2023-01-31T08:51:41.502Z,4.70
2023-01-31T08:54:10.581Z,4.80
2023-01-31T08:56:39.430Z,4.70
2023-01-31T08:59:08.289Z,4.80
2023-01-31T09:01:35.527Z,4.60
2023-01-31T09:04:05.523Z,4.50
2023-01-31T09:06:32.436Z,4.80
2023-01-31T09:09:02.092Z,5.20
2023-01-31T09:11:30.625Z,5.30
2023-01-31T09:13:57.957Z,5.50
2023-01-31T09:16:24.843Z,5.30
2023-01-31T09:18:52.742Z,5.00
2023-01-31T09:21:21.518Z,5.10
2023-01-31T09:23:50.785Z,5.20
2023-01-31T09:26:17.602Z,5.50
2023-01-31T09:28:45.462Z,5.70
2023-01-31T09:31:17.740Z,5.80
2023-01-31T09:33:44.740Z,5.90
2023-01-31T09:36:17.557Z,5.80
2023-01-31T09:38:47.672Z,5.90
2023-01-31T09:41:19.832Z,5.80
2023-01-31T09:43:55.944Z,5.40
2023-01-31T09:46:27.599Z,5.60
2023-01-31T09:48:57.985Z,5.80
2023-01-31T09:51:26.946Z,5.70
2023-01-31T09:53:55.668Z,5.90
2023-01-31T09:57:03.818Z,6.10
2023-01-31T09:59:58.956Z,6.10
2023-01-31T10:02:28.754Z,6.00
2023-01-31T10:05:17.128Z,6.40
2023-01-31T10:08:21.074Z,6.30
2023-01-31T10:10:59.059Z,6.40
2023-01-31T10:14:01.715Z,6.10
2023-01-31T10:16:38.082Z,6.10
2023-01-31T10:19:09.116Z,5.90
2023-01-31T10:22:00.717Z,5.60
2023-01-31T10:24:38.553Z,5.60
2023-01-31T10:27:17.592Z,5.40
2023-01-31T10:29:52.366Z,5.40
2023-01-31T10:32:29.062Z,5.50
2023-01-31T10:35:19.575Z,5.50
2023-01-31T10:37:55.870Z,5.60
2023-01-31T10:40:35.689Z,5.50
2023-01-31T10:43:26.381Z,5.30
2023-01-31T10:45:53.218Z,5.20
2023-01-31T10:48:27.974Z,5.10
2023-01-31T10:51:13.614Z,5.00
2023-01-31T10:53:57.997Z,5.00
2023-01-31T10:56:32.235Z,5.10
2023-01-31T10:59:03.500Z,5.40
2023-01-31T11:01:30.504Z,5.20
2023-01-31T11:03:57.743Z,5.30
2023-01-31T11:06:24.926Z,5.30
2023-01-31T11:08:58.973Z,5.40
2023-01-31T11:11:28.515Z,5.40
2023-01-31T11:14:02.592Z,5.30
2023-01-31T11:16:34.272Z,5.20
2023-01-31T11:19:07.145Z,5.30
2023-01-31T11:21:35.794Z,5.30
2023-01-31T11:24:09.394Z,5.60
2023-01-31T11:26:39.147Z,5.90
2023-01-31T11:29:23.381Z,5.80
2023-01-31T11:31:51.937Z,5.60
2023-01-31T11:34:21.270Z,5.50
2023-01-31T11:36:48.413Z,5.60
2023-01-31T11:39:35.436Z,5.70
2023-01-31T11:42:11.436Z,5.50
2023-01-31T11:45:04.771Z,5.50
2023-01-31T11:47:33.801Z,6.00
2023-01-31T11:50:04.652Z,6.00
2023-01-31T11:52:34.123Z,5.70
2023-01-31T11:57:47.321Z,6.30
2023-01-31T12:00:25.078Z,6.70
2023-01-31T12:03:08.294Z,6.60
2023-01-31T12:05:44.278Z,6.20
2023-01-31T12:08:31.699Z,6.50
2023-01-31T12:10:59.277Z,6.90
2023-01-31T12:13:28.909Z,6.40
2023-01-31T12:16:01.749Z,6.30
2023-01-31T12:18:34.973Z,6.70
2023-01-31T12:21:17.382Z,6.90
2023-01-31T12:24:02.246Z,6.70
2023-01-31T12:26:41.610Z,6.90
2023-01-31T12:29:25.617Z,6.90
2023-01-31T12:32:22.009Z,6.80
2023-01-31T12:35:27.119Z,7.00
2023-01-31T12:38:20.365Z,6.60
2023-01-31T12:40:51.778Z,6.60
2023-01-31T12:43:50.995Z,6.90
2023-01-31T12:46:47.823Z,7.50
2023-01-31T12:49:23.288Z,7.30
2023-01-31T12:52:11.037Z,7.50
2023-01-31T12:55:03.625Z,7.60
2023-01-31T12:57:53.368Z,7.10
2023-01-31T13:00:41.856Z,7.20
2023-01-31T13:03:32.227Z,7.30
2023-01-31T13:06:15.135Z,7.30
2023-01-31T13:09:06.330Z,7.00
2023-01-31T13:11:46.042Z,6.90
2023-01-31T13:14:17.726Z,6.90
2023-01-31T13:16:47.770Z,6.80
2023-01-31T13:19:33.499Z,7.00
2023-01-31T13:22:05.797Z,7.00
2023-01-31T13:24:38.479Z,6.80
2023-01-31T13:27:23.559Z,6.90
2023-01-31T13:30:45.775Z,6.90
2023-01-31T13:33:30.688Z,7.10
2023-01-31T13:36:11.749Z,7.20
2023-01-31T13:38:46.600Z,7.40
2023-01-31T13:41:34.669Z,7.40
2023-01-31T13:44:02.307Z,7.10
2023-01-31T13:47:01.369Z,6.90
2023-01-31T13:49:39.569Z,6.40
2023-01-31T13:52:17.973Z,6.10
2023-01-31T13:54:53.955Z,6.10
2023-01-31T13:57:32.065Z,5.90
2023-01-31T14:00:30.561Z,5.90
2023-01-31T14:03:14.443Z,5.90
2023-01-31T14:05:47.720Z,5.90
2023-01-31T14:08:32.852Z,5.90
2023-01-31T14:11:02.050Z,5.90
2023-01-31T14:13:31.730Z,6.00
2023-01-31T14:15:59.693Z,5.80
2023-01-31T14:18:41.289Z,5.80
2023-01-31T14:21:34.332Z,5.80
2023-01-31T14:24:04.144Z,5.80
2023-01-31T14:26:43.179Z,5.90
2023-01-31T14:29:16.613Z,5.80
2023-01-31T14:31:45.132Z,5.80
2023-01-31T14:34:23.703Z,5.80
2023-01-31T14:37:04.373Z,5.80
2023-01-31T14:39:44.159Z,5.80
2023-01-31T14:42:18.722Z,5.80
2023-01-31T14:45:16.304Z,6.00
2023-01-31T14:48:28.199Z,5.80
2023-01-31T14:50:54.999Z,5.90
2023-01-31T14:53:55.791Z,5.90
2023-01-31T14:56:28.551Z,6.00
2023-01-31T14:58:55.524Z,5.90
2023-01-31T15:01:33.622Z,6.00
2023-01-31T15:04:01.058Z,6.00
2023-01-31T15:06:37.084Z,5.90
2023-01-31T15:09:18.689Z,5.90
2023-01-31T15:11:49.031Z,5.80
2023-01-31T15:14:36.540Z,5.90
2023-01-31T15:17:23.666Z,5.80
2023-01-31T15:20:28.392Z,5.70
2023-01-31T15:23:04.015Z,5.50
2023-01-31T15:25:43.397Z,5.60
2023-01-31T15:28:19.390Z,5.50
2023-01-31T15:30:47.598Z,5.50
2023-01-31T15:33:22.371Z,5.30
2023-01-31T15:36:18.591Z,5.10
2023-01-31T15:39:04.448Z,5.00
2023-01-31T15:41:42.928Z,4.90
2023-01-31T15:44:18.492Z,4.90
2023-01-31T15:46:53.807Z,4.90
2023-01-31T15:49:39.607Z,4.90
2023-01-31T15:52:17.929Z,4.70
2023-01-31T15:54:59.675Z,4.70
2023-01-31T15:57:55.162Z,4.90
2023-01-31T16:00:28.139Z,4.70
2023-01-31T16:03:03.420Z,4.80
2023-01-31T16:05:36.755Z,4.60
2023-01-31T16:08:16.332Z,4.40
2023-01-31T16:10:45.977Z,4.40
2023-01-31T16:13:13.563Z,4.40
2023-01-31T16:15:41.505Z,4.40
2023-01-31T16:18:11.836Z,4.30
2023-01-31T16:20:54.810Z,3.70
2023-01-31T16:23:33.786Z,3.70
2023-01-31T16:26:06.915Z,3.70
2023-01-31T16:28:44.527Z,3.70
2023-01-31T16:31:17.530Z,3.80
2023-01-31T16:33:51.863Z,4.00
2023-01-31T16:36:32.397Z,3.90
2023-01-31T16:39:05.728Z,3.50
2023-01-31T16:41:51.973Z,3.30
2023-01-31T16:44:21.117Z,2.00
2023-01-31T16:46:49.837Z,1.70
2023-01-31T16:49:31.743Z,1.60
2023-01-31T16:52:20.000Z,1.10
2023-01-31T16:54:52.419Z,1.20
2023-01-31T16:57:39.477Z,0.80
2023-01-31T17:00:27.703Z,1.00
2023-01-31T17:02:56.742Z,1.40
2023-01-31T17:05:29.256Z,1.60
2023-01-31T17:07:59.577Z,1.40
2023-01-31T17:10:31.331Z,1.30
2023-01-31T17:13:12.468Z,1.40
2023-01-31T17:15:41.160Z,1.30
2023-01-31T17:18:13.109Z,1.10
2023-01-31T17:20:58.377Z,0.90
2023-01-31T17:23:25.137Z,0.70
2023-01-31T17:25:51.916Z,0.90
2023-01-31T17:28:20.046Z,1.00
2023-01-31T17:30:47.024Z,1.10
2023-01-31T17:33:15.977Z,1.10
2023-01-31T17:35:49.941Z,1.00
2023-01-31T17:38:16.791Z,0.80
2023-01-31T17:40:45.900Z,0.90
2023-01-31T17:43:20.473Z,0.50
2023-01-31T17:45:47.360Z,0.50
2023-01-31T17:48:17.326Z,0.50
2023-01-31T17:50:54.553Z,0.90
2023-01-31T17:53:23.933Z,1.00
2023-01-31T17:55:53.369Z,1.40
2023-01-31T17:58:23.180Z,1.20
2023-01-31T18:00:52.444Z,1.30
2023-01-31T18:03:24.384Z,1.00
2023-01-31T18:05:51.955Z,0.90
2023-01-31T18:08:19.077Z,0.60
2023-01-31T18:10:46.267Z,1.10
2023-01-31T18:13:13.312Z,1.10
2023-01-31T18:15:40.231Z,0.30
2023-01-31T18:18:08.885Z,0.20
2023-01-31T18:20:39.789Z,0.40
2023-01-31T18:23:07.907Z,0.60
2023-01-31T18:25:34.704Z,0.30
2023-01-31T18:28:01.464Z,0.50
2023-01-31T18:30:32.694Z,0.40
2023-01-31T18:32:59.535Z,0.10
2023-01-31T18:35:26.352Z,-0.10
2023-01-31T18:37:54.506Z,0.80
2023-01-31T18:40:21.597Z,0.90
2023-01-31T18:42:48.365Z,0.60
2023-01-31T18:45:15.361Z,0.40
2023-01-31T18:47:42.184Z,0.00
2023-01-31T18:50:09.459Z,0.20
2023-01-31T18:52:36.348Z,0.30
2023-01-31T18:55:03.196Z,0.40
2023-01-31T18:57:29.958Z,0.20
2023-01-31T18:59:56.752Z,0.80
2023-01-31T19:02:25.748Z,0.80
2023-01-31T19:04:52.746Z,0.30
2023-01-31T19:07:20.481Z,0.20
2023-01-31T19:09:47.213Z,0.10
2023-01-31T19:12:13.961Z,0.30
2023-01-31T19:14:42.935Z,0.70
2023-01-31T19:17:09.721Z,0.10
2023-01-31T19:19:36.531Z,-0.20
2023-01-31T19:22:03.363Z,0.00
2023-01-31T19:24:32.380Z,0.00
2023-01-31T19:26:59.121Z,-0.50
2023-01-31T19:29:26.869Z,-0.60
2023-01-31T19:31:55.084Z,-0.60
2023-01-31T19:34:21.854Z,-0.80
2023-01-31T19:36:51.327Z,-0.70
2023-01-31T19:39:18.195Z,-0.90
2023-01-31T19:41:45.185Z,-0.90
2023-01-31T19:44:12.171Z,-1.20
2023-01-31T19:46:39.190Z,-1.10
2023-01-31T19:49:06.259Z,-1.00
2023-01-31T19:51:33.616Z,-1.00
2023-01-31T19:54:05.075Z,-1.00
2023-01-31T19:56:32.568Z,-1.20
2023-01-31T19:59:00.041Z,-1.20
2023-01-31T20:01:26.904Z,-1.00
2023-01-31T20:03:54.665Z,-1.20
2023-01-31T20:06:25.563Z,-1.00
2023-01-31T20:08:54.241Z,-0.90
2023-01-31T20:11:21.610Z,-1.00
2023-01-31T20:13:53.128Z,-1.10
2023-01-31T20:16:23.534Z,-1.00
2023-01-31T20:18:52.374Z,-1.10
2023-01-31T20:21:20.904Z,-1.00
2023-01-31T20:23:48.721Z,-1.00
2023-01-31T20:26:17.010Z,-0.90
2023-01-31T20:28:46.211Z,-1.10
2023-01-31T20:31:15.077Z,-1.20
2023-01-31T20:33:42.276Z,-1.10
2023-01-31T20:36:09.439Z,-1.30
2023-01-31T20:38:38.138Z,-1.20
2023-01-31T20:41:05.563Z,-1.40
2023-01-31T20:43:32.340Z,-1.40
2023-01-31T20:46:07.270Z,-1.90
2023-01-31T20:48:34.671Z,-1.60
2023-01-31T20:51:01.548Z,-1.40
2023-01-31T20:53:33.076Z,-1.30
2023-01-31T20:56:05.223Z,-1.30
2023-01-31T20:58:35.920Z,-1.40
2023-01-31T21:01:05.838Z,-1.70
2023-01-31T21:03:33.721Z,-1.70
2023-01-31T21:06:00.670Z,-1.50
2023-01-31T21:08:28.525Z,-1.80
2023-01-31T21:10:57.102Z,-1.60
2023-01-31T21:13:27.628Z,-1.50
2023-01-31T21:15:56.646Z,-1.80
2023-01-31T21:18:26.733Z,-1.60
2023-01-31T21:20:56.589Z,-1.80
2023-01-31T21:23:24.149Z,-1.60
2023-01-31T21:25:53.715Z,-1.80
2023-01-31T21:28:20.510Z,-1.90
2023-01-31T21:31:01.076Z,-1.90
2023-01-31T21:33:29.129Z,-1.90
2023-01-31T21:35:58.271Z,-2.00
2023-01-31T21:38:25.731Z,-2.00
2023-01-31T21:41:15.704Z,-1.80
2023-01-31T21:43:42.479Z,-1.60
2023-01-31T21:46:13.260Z,-1.90
2023-01-31T21:48:40.986Z,-2.30
2023-01-31T21:51:10.857Z,-2.10
2023-01-31T21:53:38.017Z,-1.70
2023-01-31T21:56:05.894Z,-1.70
2023-01-31T21:58:33.743Z,-1.80
2023-01-31T22:01:38.492Z,-2.20
2023-01-31T22:04:06.678Z,-1.90
2023-01-31T22:06:37.848Z,-1.60
2023-01-31T22:09:06.481Z,-1.90
2023-01-31T22:11:34.681Z,-2.30
2023-01-31T22:14:21.232Z,-2.00
2023-01-31T22:16:50.060Z,-1.80
2023-01-31T22:19:16.826Z,-1.90
2023-01-31T22:21:43.927Z,-1.90
2023-01-31T22:24:11.682Z,-2.00
2023-01-31T22:26:42.060Z,-2.40
2023-01-31T22:29:19.717Z,-2.20
2023-01-31T22:31:46.601Z,-2.20
2023-01-31T22:34:15.796Z,-2.30
2023-01-31T22:36:42.563Z,-2.20
2023-01-31T22:39:12.132Z,-2.20
2023-01-31T22:41:38.923Z,-2.20
2023-01-31T22:44:05.702Z,-2.10
2023-01-31T22:46:32.610Z,-2.20
2023-01-31T22:48:59.405Z,-2.10
2023-01-31T22:51:31.027Z,-2.40
2023-01-31T22:53:58.927Z,-2.40
2023-01-31T22:56:28.730Z,-2.50
2023-01-31T22:59:01.739Z,-2.20
2023-01-31T23:01:32.210Z,-2.30
2023-01-31T23:04:01.205Z,-2.40
2023-01-31T23:06:31.801Z,-2.20
2023-01-31T23:08:58.772Z,-2.40
2023-01-31T23:11:26.561Z,-2.40
2023-01-31T23:13:55.548Z,-2.50
2023-01-31T23:16:47.459Z,-2.50
2023-01-31T23:19:16.449Z,-2.30
2023-01-31T23:21:46.359Z,-2.60
2023-01-31T23:24:14.721Z,-2.50
2023-01-31T23:26:43.174Z,-2.40
2023-01-31T23:29:11.593Z,-2.30
2023-01-31T23:31:41.209Z,-2.20
2023-01-31T23:34:10.719Z,-2.00
2023-01-31T23:36:37.568Z,-2.20
2023-01-31T23:39:04.911Z,-2.20
2023-01-31T23:41:31.708Z,-2.00
2023-01-31T23:43:58.481Z,-2.00
2023-01-31T23:46:25.309Z,-1.90
2023-01-31T23:48:52.089Z,-2.30
2023-01-31T23:51:18.833Z,-2.40
2023-01-31T23:53:45.611Z,-2.30
2023-01-31T23:56:12.417Z,-2.20
2023-01-31T23:58:39.165Z,-2.20
